Waimanalo, Hawaii
Current Conditions -  °F | °C
As of 1:57 AM on Tuesday 27 Jan 2015 (Local Time) from PHNG Reporting Station
Overcast Overcast  
Wind Chill: 73°   Ceiling: 4700
Heat Index: 73°   Visibility: NA
Dew Point: 60°   Wind: 5mph
Humidity: 64%   Direction: NA
Pressure: 29.97"   Gusts: NA
Location:  21.34°N, 157.71°W
Report Text: PHNG 271157Z VRB04KT SCT038 OVC047 23/16 A2997 RMK AO2 SLP145 T02280156 10233 20222 58009 $
Loading
Personal Weather Stations






























Interactive Weather Map New forecast layout! Learn more

10-Day Weather Forecast

Advertisements
Track Severe Weather on mobile